Time;durP1;ratioP1;P1;durP2;ratioP2;P2;SDS_P1;SDS_P2;PMS_P1;PMS_P2;Temp;Humidity;BMP_temperature;BMP_pressure;BME280_temperature;BME280_humidity;BME280_pressure;Samples;Min_cycle;Max_cycle;Signal;HPM_P1;HPM_P2
2021/11/18 00:00:59;;;;;;;2.53;1.02;;;;;;;10.66;100.00;102080.34;6198440;22;20016;-90
2021/11/18 00:03:26;;;;;;;1.75;1.00;;;;;;;10.62;100.00;102076.28;6200720;22;20011;-90
2021/11/18 00:05:52;;;;;;;4.63;1.17;;;;;;;10.65;100.00;102089.44;6199802;22;20088;-94
2021/11/18 00:08:18;;;;;;;2.90;0.85;;;;;;;10.66;100.00;102086.59;6198237;22;20016;-92
2021/11/18 00:11:02;;;;;;;3.30;0.88;;;;;;;10.65;100.00;102084.06;6199511;22;20004;-91
2021/11/18 00:13:31;;;;;;;6.78;2.47;;;;;;;10.60;100.00;102070.19;6200189;22;20420;-93
2021/11/18 00:15:58;;;;;;;5.32;1.55;;;;;;;10.65;100.00;102073.28;6200437;22;20011;-90
2021/11/18 00:18:26;;;;;;;3.50;1.40;;;;;;;10.64;100.00;102079.66;6201795;22;20008;-91
2021/11/18 00:21:07;;;;;;;3.78;1.00;;;;;;;10.60;100.00;102067.50;6200883;22;20030;-93
2021/11/18 00:23:39;;;;;;;3.85;0.95;;;;;;;10.60;100.00;102064.81;6201359;22;20050;-93
2021/11/18 00:26:16;;;;;;;4.78;2.33;;;;;;;10.60;100.00;102073.72;6201624;22;20015;-93
2021/11/18 00:28:42;;;;;;;5.25;1.30;;;;;;;10.71;100.00;102095.06;6201228;22;20034;-93
2021/11/18 00:31:09;;;;;;;12.05;2.28;;;;;;;10.67;100.00;102087.47;6200834;22;20065;-92
2021/11/18 00:33:46;;;;;;;5.35;2.15;;;;;;;10.63;100.00;102080.66;6201858;22;20007;-90
2021/11/18 00:36:14;;;;;;;5.50;1.50;;;;;;;10.66;100.00;102083.06;6199754;22;20081;-94
2021/11/18 00:38:47;;;;;;;9.02;2.00;;;;;;;10.75;100.00;102090.28;6200405;22;20063;-94
2021/11/18 00:41:14;;;;;;;8.10;1.85;;;;;;;10.71;100.00;102092.38;6226747;22;20011;-93
2021/11/18 00:43:42;;;;;;;3.22;1.70;;;;;;;10.73;100.00;102092.25;6224966;22;20008;-93
2021/11/18 00:46:12;;;;;;;8.35;2.08;;;;;;;10.78;100.00;102098.06;6199295;22;20014;-92
2021/11/18 00:48:39;;;;;;;6.22;2.13;;;;;;;10.72;100.00;102079.81;6199150;22;20018;-90
2021/11/18 00:51:10;;;;;;;9.13;1.95;;;;;;;10.79;100.00;102092.50;6199570;22;20012;-91
2021/11/18 00:53:40;;;;;;;7.97;2.05;;;;;;;10.73;100.00;102078.81;6200370;22;20003;-94
2021/11/18 00:56:11;;;;;;;12.40;2.00;;;;;;;10.74;100.00;102086.75;6226309;22;20014;-92
2021/11/18 00:58:37;;;;;;;6.63;2.28;;;;;;;10.82;100.00;102099.44;6200770;22;20069;-92
2021/11/18 01:01:05;;;;;;;7.50;1.70;;;;;;;10.74;100.00;102084.06;6199924;22;20004;-93
2021/11/18 01:03:31;;;;;;;9.02;2.60;;;;;;;10.83;100.00;102093.09;6198943;22;20039;-92
2021/11/18 01:05:57;;;;;;;9.40;2.63;;;;;;;10.72;100.00;102072.56;6199009;22;20069;-92
2021/11/18 01:08:24;;;;;;;8.70;1.70;;;;;;;10.72;100.00;102075.25;6199541;22;20038;-92
2021/11/18 01:10:53;;;;;;;8.68;2.13;;;;;;;10.83;100.00;102086.88;6225329;22;20014;-92
2021/11/18 01:13:20;;;;;;;10.10;1.90;;;;;;;10.79;100.00;102083.59;6200945;22;20032;-92
2021/11/18 01:15:53;;;;;;;7.53;2.03;;;;;;;10.75;100.00;102074.13;6201413;22;20061;-91
2021/11/18 01:18:19;;;;;;;9.75;1.92;;;;;;;10.80;100.00;102077.22;6201383;22;19999;-93
2021/11/18 01:20:47;;;;;;;9.38;1.95;;;;;;;10.84;100.00;102088.53;6201827;22;20027;-92
2021/11/18 01:23:16;;;;;;;6.47;1.77;;;;;;;10.85;100.00;102085.72;6200651;22;20015;-92
2021/11/18 01:25:42;;;;;;;11.15;2.10;;;;;;;10.86;100.00;102086.56;6201131;22;20019;-91
2021/11/18 01:28:10;;;;;;;9.43;1.95;;;;;;;10.86;100.00;102084.72;6201153;22;20091;-94
2021/11/18 01:30:37;;;;;;;6.38;2.00;;;;;;;10.84;100.00;102089.38;6201215;22;20010;-89
2021/11/18 01:33:05;;;;;;;5.63;2.17;;;;;;;10.81;100.00;102080.78;6200700;22;20030;-94
2021/11/18 01:35:31;;;;;;;14.70;2.38;;;;;;;10.91;100.00;102090.50;6200819;22;20012;-91
2021/11/18 01:38:08;;;;;;;12.40;2.47;;;;;;;10.95;100.00;102105.34;6200698;22;20019;-92
2021/11/18 01:40:37;;;;;;;8.27;1.80;;;;;;;10.84;100.00;102085.84;6200847;22;20015;-90
2021/11/18 01:43:10;;;;;;;8.48;2.03;;;;;;;10.84;100.00;102089.38;6200141;22;20011;-92
2021/11/18 01:45:37;;;;;;;;;;;;;;;10.97;100.00;102103.38;6201001;22;20004;-93
2021/11/18 01:48:03;;;;;;;8.32;2.08;;;;;;;10.85;100.00;102082.16;6199913;22;20283;-92
2021/11/18 01:50:30;;;;;;;5.47;1.40;;;;;;;10.88;100.00;102085.44;6200249;22;20095;-96
2021/11/18 01:52:58;;;;;;;11.27;1.92;;;;;;;10.93;100.00;102090.38;6200325;22;20065;-93
2021/11/18 01:55:24;;;;;;;8.85;1.60;;;;;;;10.90;100.00;102091.53;6224226;22;20027;-92
2021/11/18 01:57:57;;;;;;;6.18;1.70;;;;;;;10.94;100.00;102100.97;6199663;22;20003;-91
2021/11/18 02:00:34;;;;;;;11.02;1.88;;;;;;;10.93;100.00;102095.75;6200692;22;20049;-92
2021/11/18 02:03:41;;;;;;;7.72;2.30;;;;;;;11.03;100.00;102114.56;6226523;22;20095;-94
2021/11/18 02:13:20;;;;;;;6.82;1.50;;;;;;;10.96;100.00;102096.31;6278793;22;20018;-91
2021/11/18 02:19:00;;;;;;;7.50;1.42;;;;;;;10.90;100.00;102079.88;6251951;22;19999;-90
2021/11/18 02:21:29;;;;;;;6.07;1.45;;;;;;;11.06;100.00;102104.38;6201454;22;20501;-92
2021/11/18 02:24:27;;;;;;;7.28;1.65;;;;;;;10.93;100.00;102076.94;6201443;22;20018;-93
2021/11/18 02:26:53;;;;;;;2.53;1.20;;;;;;;10.92;100.00;102089.50;6226483;22;20073;-92
2021/11/18 02:30:02;;;;;;;4.47;1.30;;;;;;;11.09;100.00;102114.00;6201345;22;20004;-93
2021/11/18 02:33:10;;;;;;;2.85;1.13;;;;;;;11.11;100.00;102104.75;6226350;22;20003;-94
2021/11/18 02:39:36;;;;;;;3.30;0.82;;;;;;;11.09;100.00;102097.84;6278826;22;20362;-92
2021/11/18 02:45:47;;;;;;;5.30;0.98;;;;;;;11.07;100.00;102086.38;6278551;22;20010;-93
2021/11/18 02:48:14;;;;;;;4.78;0.90;;;;;;;11.08;100.00;102083.50;6201456;22;20011;-92
2021/11/18 02:50:54;;;;;;;2.40;1.20;;;;;;;11.07;100.00;102086.38;6201254;22;20014;-92
2021/11/18 02:57:17;;;;;;;3.35;0.75;;;;;;;11.07;100.00;102078.28;6185106;23;20389;-92
2021/11/18 03:03:25;;;;;;;6.13;1.13;;;;;;;11.09;100.00;102085.22;6185009;23;20016;-93
2021/11/18 03:06:29;;;;;;;1.05;0.70;;;;;;;11.18;100.00;102087.03;6111726;23;20005;-92
2021/11/18 03:16:33;;;;;;;5.30;1.20;;;;;;;11.11;100.00;102080.53;6186049;22;20059;-93
2021/11/18 04:08:07;;;;;;;2.70;0.63;;;;;;;11.20;100.00;102101.19;6277952;22;20051;-91
2021/11/18 04:18:56;;;;;;;3.40;0.70;;;;;;;11.27;100.00;102114.91;6279730;22;20022;-90
2021/11/18 04:59:16;;;;;;;1.92;0.75;;;;;;;11.29;100.00;102098.59;6278952;22;20046;-93
2021/11/18 05:24:29;;;;;;;4.18;0.98;;;;;;;11.18;100.00;102102.34;6280920;22;20332;-90
2021/11/18 05:48:41;;;;;;;5.93;1.10;;;;;;;11.12;100.00;102106.47;6251746;22;19903;-93
2021/11/18 05:59:27;;;;;;;2.03;0.60;;;;;;;11.14;100.00;102119.75;6278517;22;20015;-93
2021/11/18 06:06:32;;;;;;;3.95;0.93;;;;;;;11.08;100.00;102117.66;6278677;22;20069;-92
2021/11/18 06:09:48;;;;;;;4.57;1.05;;;;;;;11.12;100.00;102124.47;6226673;22;20061;-91
2021/11/18 06:12:14;;;;;;;6.03;1.02;;;;;;;11.10;100.00;102135.38;6226710;22;20082;-90
2021/11/18 06:14:40;;;;;;;8.75;1.17;;;;;;;11.02;100.00;102119.09;6201663;22;20004;-91
2021/11/18 08:12:51;;;;;;;4.65;1.67;;;;;;;11.03;100.00;102219.53;6205090;23;20404;-92
2021/11/18 08:15:18;;;;;;;3.13;0.88;;;;;;;10.92;100.00;102202.53;6132861;23;20049;-90
2021/11/18 08:17:45;;;;;;;3.38;0.90;;;;;;;10.96;100.00;102201.28;6157767;23;20005;-91
2021/11/18 08:20:37;;;;;;;4.90;1.00;;;;;;;11.08;100.00;102220.78;6108485;23;20456;-91
2021/11/18 08:23:03;;;;;;;;;;;;;;;11.08;100.00;102222.66;6137348;23;20299;-91
2021/11/18 08:25:31;;;;;;;1.92;0.80;;;;;;;11.07;100.00;102223.66;6111274;23;20354;-91
2021/11/18 08:28:10;;;;;;;2.10;0.65;;;;;;;11.04;100.00;102226.63;6111454;23;20019;-93
2021/11/18 08:34:49;;;;;;;3.35;0.85;;;;;;;11.10;100.00;102226.91;6186633;23;20020;-93
2021/11/18 08:41:00;;;;;;;1.10;0.50;;;;;;;11.00;100.00;102220.66;6186588;23;20016;-92
2021/11/18 08:48:07;;;;;;;2.70;0.70;;;;;;;11.16;100.00;102250.53;6096030;23;20018;-94
2021/11/18 08:54:48;;;;;;;;;;;;;;;11.18;100.00;102240.47;6096628;23;20084;-93
2021/11/18 08:57:15;;;;;;;4.07;0.80;;;;;;;11.13;100.00;102236.53;6072200;23;20004;-95
2021/11/18 08:59:42;;;;;;;3.80;0.55;;;;;;;11.18;100.00;102248.56;6047646;23;20034;-92
2021/11/18 09:06:05;;;;;;;7.70;1.10;;;;;;;11.12;100.00;102235.69;6094805;23;20093;-93
2021/11/18 09:12:26;;;;;;;3.17;1.05;;;;;;;11.13;100.00;102229.28;6096878;23;20020;-92
2021/11/18 09:30:59;;;;;;;;;;;;;;;11.38;100.00;102244.00;6186873;23;20059;-95
2021/11/18 09:33:56;;;;;;;5.97;1.33;;;;;;;11.45;100.00;102246.94;6135738;23;19911;-94
2021/11/18 09:36:24;;;;;;;4.78;1.88;;;;;;;11.34;100.00;102226.44;6111800;23;20380;-93
2021/11/18 09:39:20;;;;;;;5.13;1.23;;;;;;;11.47;100.00;102250.34;6111413;23;20088;-92
2021/11/18 09:45:31;;;;;;;5.20;1.42;;;;;;;11.35;100.00;102233.53;6188133;23;20395;-92
2021/11/18 09:48:37;;;;;;;5.38;1.40;;;;;;;11.39;100.00;102239.47;6113105;23;20005;-93
2021/11/18 09:51:54;;;;;;;5.47;1.33;;;;;;;11.54;100.00;102251.50;6136455;23;20016;-92
2021/11/18 09:54:26;;;;;;;2.00;1.13;;;;;;;11.60;100.00;102260.81;6138393;23;20310;-93
2021/11/18 09:57:19;;;;;;;2.47;0.90;;;;;;;11.61;100.00;102259.81;6137532;23;20032;-92
2021/11/18 10:03:35;;;;;;;4.80;1.30;;;;;;;11.71;100.00;102260.66;6068851;23;20041;-94
2021/11/18 10:06:19;;;;;;;4.78;1.17;;;;;;;11.72;100.00;102256.09;5999763;23;20046;-91
2021/11/18 11:21:47;;;;;;;5.32;1.38;;;;;;;12.03;100.00;102262.97;6186915;23;20028;-95
2021/11/18 11:35:28;;;;;;;4.13;1.10;;;;;;;12.13;100.00;102270.19;6097008;23;20453;-91
2021/11/18 11:41:54;;;;;;;;;;;;;;;12.29;100.00;102264.97;6096563;23;20009;-92
2021/11/18 11:52:13;;;;;;;5.30;1.25;;;;;;;12.31;100.00;102231.47;6097461;23;20077;-95
2021/11/18 11:58:35;;;;;;;3.88;1.10;;;;;;;12.53;100.00;102237.44;6096080;23;20029;-91
2021/11/18 12:12:36;;;;;;;7.63;1.67;;;;;;;12.69;100.00;102251.09;6186953;23;20013;-92
2021/11/18 12:54:17;;;;;;;2.50;0.80;;;;;;;12.77;100.00;102266.50;6125526;23;20133;-92
2021/11/18 13:24:05;;;;;;;8.23;1.38;;;;;;;13.18;100.00;102261.50;6042721;23;20062;-95
2021/11/18 13:30:53;;;;;;;3.42;0.88;;;;;;;13.18;100.00;102256.94;6127742;23;20020;-94
2021/11/18 13:33:46;;;;;;;6.15;0.75;;;;;;;13.19;100.00;102258.63;6055277;23;20112;-95
2021/11/18 13:40:03;;;;;;;3.40;1.40;;;;;;;13.26;100.00;102266.09;6188710;23;20129;-96
2021/11/18 13:50:00;;;;;;;3.08;0.73;;;;;;;13.01;100.00;102244.28;6189010;23;20033;-95
2021/11/18 14:14:32;;;;;;;4.00;1.02;;;;;;;12.99;100.00;102254.41;6187109;23;20076;-96
2021/11/18 14:17:36;;;;;;;3.90;1.13;;;;;;;13.11;100.00;102258.56;6140192;23;20012;-95
2021/11/18 14:23:46;;;;;;;9.20;1.20;;;;;;;12.99;100.00;102254.41;6188930;23;20476;-93
2021/11/18 14:29:57;;;;;;;3.90;0.90;;;;;;;12.79;100.00;102221.31;6188790;23;20067;-92
2021/11/18 14:36:22;;;;;;;7.70;1.85;;;;;;;12.57;100.00;102244.22;6189578;23;20012;-93
2021/11/18 14:43:18;;;;;;;1.42;0.77;;;;;;;12.40;100.00;102234.25;6190343;23;20024;-92
2021/11/18 14:46:34;;;;;;;1.30;0.95;;;;;;;12.48;100.00;102247.81;6116905;23;20084;-94
2021/11/18 14:53:04;;;;;;;1.95;1.40;;;;;;;12.43;100.00;102242.88;6187234;23;20491;-92
2021/11/18 15:07:20;;;;;;;4.07;1.30;;;;;;;12.29;100.00;102233.47;6187338;23;20023;-92
2021/11/18 15:36:36;;;;;;;3.53;1.30;;;;;;;12.12;100.00;102247.75;6186865;23;20024;-90
2021/11/18 16:06:09;;;;;;;6.00;1.67;;;;;;;12.08;100.00;102238.25;6187382;23;20141;-92
2021/11/18 16:32:00;;;;;;;6.93;2.88;;;;;;;12.05;100.00;102241.25;6187143;23;20455;-90
2021/11/18 16:42:02;;;;;;;6.28;1.60;;;;;;;11.92;100.00;102216.50;6188653;23;20055;-93
2021/11/18 16:44:35;;;;;;;5.40;2.80;;;;;;;11.88;100.00;102214.09;6111414;23;20009;-93
2021/11/18 16:47:12;;;;;;;5.32;2.05;;;;;;;12.05;100.00;102243.97;6112264;23;20065;-94
2021/11/18 16:58:04;;;;;;;3.72;1.98;;;;;;;11.97;100.00;102250.09;6188798;23;20016;-92
2021/11/18 17:27:37;;;;;;;8.82;2.80;;;;;;;11.87;100.00;102257.38;6188330;23;20141;-94
2021/11/18 18:31:30;;;;;;;5.55;3.67;;;;;;;11.59;100.00;102275.28;6188871;23;20020;-91
2021/11/18 18:49:11;;;;;;;5.40;2.08;;;;;;;11.56;100.00;102292.56;6187510;23;20023;-93
2021/11/18 19:18:21;;;;;;;5.55;3.03;;;;;;;11.32;100.00;102313.72;6187013;23;20345;-93
2021/11/18 19:32:05;;;;;;;10.93;5.70;;;;;;;11.31;100.00;102312.06;6187055;23;20017;-85
2021/11/18 19:35:03;;;;;;;8.43;3.90;;;;;;;11.36;100.00;102332.16;6131095;23;20059;-87
2021/11/18 19:37:34;;;;;;;7.38;3.70;;;;;;;11.39;100.00;102315.72;6155338;23;20012;-91
2021/11/18 19:40:01;;;;;;;8.40;4.38;;;;;;;11.36;100.00;102312.47;6104182;23;20036;-88
2021/11/18 19:42:33;;;;;;;7.30;3.13;;;;;;;11.45;100.00;102327.75;6131871;23;20029;-86
2021/11/18 19:45:05;;;;;;;4.88;2.70;;;;;;;11.35;100.00;102302.66;6128019;23;20020;-90
2021/11/18 19:47:52;;;;;;;8.33;2.80;;;;;;;11.32;100.00;102314.59;6108637;23;20019;-88
2021/11/18 19:51:08;;;;;;;3.92;2.45;;;;;;;11.33;100.00;102334.31;6127345;23;20020;-87
2021/11/18 19:53:34;;;;;;;6.25;2.40;;;;;;;11.18;100.00;102317.72;6110446;23;20321;-89
2021/11/18 19:56:58;;;;;;;6.57;3.33;;;;;;;11.22;100.00;102327.22;6140190;23;20005;-90
2021/11/18 19:59:39;;;;;;;5.55;2.20;;;;;;;11.30;100.00;102342.63;6156838;23;20016;-91
2021/11/18 20:02:05;;;;;;;3.75;2.25;;;;;;;11.29;100.00;102339.09;6107414;23;20041;-87
2021/11/18 20:04:36;;;;;;;7.15;3.72;;;;;;;11.20;100.00;102331.91;6132573;23;20011;-91
2021/11/18 20:07:04;;;;;;;5.47;2.13;;;;;;;11.20;100.00;102338.13;6132217;23;20020;-87
2021/11/18 20:09:34;;;;;;;9.95;3.00;;;;;;;11.17;100.00;102338.41;6156128;23;20012;-88
2021/11/18 20:12:02;;;;;;;56.00;20.08;;;;;;;11.17;100.00;102341.09;6156837;23;20099;-89
2021/11/18 20:14:29;;;;;;;5.28;2.00;;;;;;;11.12;100.00;102334.44;6130436;23;20017;-91
2021/11/18 20:17:06;;;;;;;8.52;3.40;;;;;;;11.11;100.00;102338.94;6131903;23;20005;-90
2021/11/18 20:19:32;;;;;;;8.98;3.00;;;;;;;11.08;100.00;102333.00;6107783;23;20015;-89
2021/11/18 20:21:59;;;;;;;29.48;8.60;;;;;;;11.07;100.00;102342.09;6156959;23;20088;-89
2021/11/18 20:24:27;;;;;;;7.80;2.50;;;;;;;11.02;100.00;102333.59;6132477;23;20451;-88
2021/11/18 20:26:53;;;;;;;33.90;13.20;;;;;;;11.05;100.00;102347.59;6107577;23;20009;-86
2021/11/18 20:29:32;;;;;;;13.48;9.20;;;;;;;11.08;100.00;102346.47;6157078;23;20516;-85
2021/11/18 20:32:07;;;;;;;8.05;2.30;;;;;;;11.06;100.00;102352.00;6131658;23;20092;-85
2021/11/18 20:34:41;;;;;;;4.68;1.63;;;;;;;11.05;100.00;102362.91;6156412;23;20033;-87
2021/11/18 20:37:28;;;;;;;4.25;1.92;;;;;;;11.00;100.00;102348.00;6156427;23;20013;-84
2021/11/18 20:40:00;;;;;;;5.55;2.58;;;;;;;11.02;100.00;102353.28;6106621;23;20001;-87
2021/11/18 20:42:26;;;;;;;8.40;2.20;;;;;;;11.00;100.00;102361.47;6107580;23;20599;-85
2021/11/18 20:44:52;;;;;;;5.72;1.63;;;;;;;11.01;100.00;102356.97;6155983;23;20067;-89
2021/11/18 20:47:21;;;;;;;10.20;2.05;;;;;;;11.03;100.00;102354.09;6181689;23;20562;-85
2021/11/18 20:49:50;;;;;;;2.78;1.65;;;;;;;11.00;100.00;102352.53;6156374;23;20328;-86
2021/11/18 20:52:26;;;;;;;4.25;1.45;;;;;;;11.04;100.00;102359.38;6131561;23;20397;-89
2021/11/18 20:54:55;;;;;;;7.57;2.28;;;;;;;11.06;100.00;102364.59;6103550;23;20033;-86
2021/11/18 20:57:27;;;;;;;10.60;3.55;;;;;;;11.03;100.00;102346.88;6132045;23;20009;-85
2021/11/18 20:59:58;;;;;;;10.18;3.70;;;;;;;11.09;100.00;102362.50;6131948;23;20010;-87
2021/11/18 21:02:33;;;;;;;6.90;2.83;;;;;;;11.10;100.00;102358.78;6176992;23;20016;-89
2021/11/18 21:04:58;;;;;;;5.68;2.90;;;;;;;11.09;100.00;102350.88;6107887;23;20048;-85
2021/11/18 21:07:27;;;;;;;8.27;2.05;;;;;;;11.10;100.00;102353.41;6156492;23;20001;-85
2021/11/18 21:09:54;;;;;;;10.73;2.42;;;;;;;11.11;100.00;102357.78;6131922;23;20333;-86
2021/11/18 21:12:28;;;;;;;10.27;4.03;;;;;;;11.12;100.00;102358.66;6156381;23;20005;-86
2021/11/18 21:14:55;;;;;;;8.15;3.72;;;;;;;11.06;100.00;102360.09;6104020;23;20005;-90
2021/11/18 21:17:23;;;;;;;7.15;2.92;;;;;;;11.03;100.00;102356.81;6131983;23;20005;-87
2021/11/18 21:19:49;;;;;;;6.45;2.88;;;;;;;10.97;100.00;102356.38;6131493;23;20009;-85
2021/11/18 21:22:14;;;;;;;8.02;2.67;;;;;;;10.93;100.00;102349.56;6156306;23;20005;-85
2021/11/18 21:24:40;;;;;;;7.32;1.90;;;;;;;10.97;100.00;102355.53;6156427;23;20012;-85
2021/11/18 21:27:09;;;;;;;9.02;3.08;;;;;;;10.98;100.00;102362.59;6132069;23;20451;-86
2021/11/18 21:29:46;;;;;;;10.32;4.03;;;;;;;10.98;100.00;102362.59;6157481;23;20063;-85
2021/11/18 21:32:13;;;;;;;7.22;2.50;;;;;;;10.98;100.00;102366.16;6132144;23;20001;-86
2021/11/18 21:34:44;;;;;;;4.32;1.70;;;;;;;10.95;100.00;102370.94;6106965;23;20009;-86
2021/11/18 21:37:10;;;;;;;9.02;3.60;;;;;;;10.97;100.00;102380.59;6134711;23;20088;-85
2021/11/18 21:39:55;;;;;;;11.73;3.63;;;;;;;10.89;100.00;102355.38;6156835;23;20005;-85
2021/11/18 21:42:51;;;;;;;9.30;4.22;;;;;;;10.97;100.00;102368.97;6108390;23;20039;-85
2021/11/18 21:45:29;;;;;;;65.35;16.67;;;;;;;10.86;100.00;102359.19;6131701;23;20432;-87
2021/11/18 21:48:54;;;;;;;6.38;3.22;;;;;;;10.84;100.00;102355.78;6139940;23;20165;-87
2021/11/18 21:51:35;;;;;;;13.82;3.45;;;;;;;10.84;100.00;102352.25;6109866;23;20013;-87
2021/11/18 21:54:04;;;;;;;6.32;2.50;;;;;;;10.93;100.00;102368.41;6132633;23;20425;-87
2021/11/18 21:56:30;;;;;;;12.77;4.38;;;;;;;10.87;100.00;102357.34;6108973;23;20040;-87
2021/11/18 21:58:59;;;;;;;8.90;2.92;;;;;;;10.92;100.00;102365.84;6157381;23;20004;-89
2021/11/18 22:01:33;;;;;;;21.20;6.93;;;;;;;10.85;100.00;102359.31;6109551;23;20020;-84
2021/11/18 22:04:00;;;;;;;63.28;19.85;;;;;;;10.85;100.00;102364.69;6133742;23;20009;-84
2021/11/18 22:06:35;;;;;;;27.00;11.82;;;;;;;10.84;100.00;102363.84;6109096;23;20016;-86
2021/11/18 22:09:03;;;;;;;17.95;7.78;;;;;;;10.81;100.00;102364.13;6132669;23;20398;-88
2021/11/18 22:11:30;;;;;;;23.40;9.18;;;;;;;10.88;100.00;102373.38;6133382;23;20005;-90
2021/11/18 22:13:57;;;;;;;12.65;6.10;;;;;;;10.84;100.00;102363.00;6156952;23;20040;-86
2021/11/18 22:16:23;;;;;;;6.80;3.40;;;;;;;10.81;100.00;102353.38;6107184;23;20009;-85
2021/11/18 22:18:51;;;;;;;6.40;2.80;;;;;;;10.90;100.00;102357.94;6155637;23;20044;-86
2021/11/18 22:21:23;;;;;;;28.77;9.25;;;;;;;10.88;100.00;102354.53;6133337;23;20040;-88
2021/11/18 22:23:48;;;;;;;8.35;3.75;;;;;;;10.91;100.00;102358.78;6132551;23;20091;-87
2021/11/18 22:26:16;;;;;;;10.68;3.28;;;;;;;10.90;100.00;102355.25;6108174;23;20373;-88
2021/11/18 22:28:42;;;;;;;9.85;3.22;;;;;;;10.92;100.00;102360.47;6106104;23;20067;-86
2021/11/18 22:31:11;;;;;;;8.13;2.90;;;;;;;10.89;100.00;102353.53;6105822;23;20013;-88
2021/11/18 22:33:39;;;;;;;7.63;2.88;;;;;;;10.84;100.00;102346.88;6107965;23;20035;-86
2021/11/18 22:36:10;;;;;;;11.90;3.67;;;;;;;10.84;100.00;102352.25;6132514;23;20024;-86
2021/11/18 22:38:36;;;;;;;7.70;2.70;;;;;;;10.78;100.00;102342.88;6158139;23;20016;-88
2021/11/18 22:41:29;;;;;;;6.50;2.40;;;;;;;10.81;100.00;102353.38;6132785;23;20337;-89
2021/11/18 22:43:55;;;;;;;21.23;8.02;;;;;;;10.81;100.00;102353.38;6184081;23;20028;-90
2021/11/18 22:46:22;;;;;;;55.97;16.85;;;;;;;10.84;100.00;102355.78;6157527;23;20020;-87
2021/11/18 22:48:50;;;;;;;26.13;8.98;;;;;;;10.79;100.00;102355.34;6130660;23;20001;-88
2021/11/18 22:51:17;;;;;;;31.50;9.60;;;;;;;10.81;100.00;102356.06;6131615;23;20417;-89
2021/11/18 22:53:43;;;;;;;42.58;11.85;;;;;;;10.79;100.00;102350.81;6155246;23;20044;-90
2021/11/18 22:56:10;;;;;;;6.95;3.00;;;;;;;10.77;100.00;102350.13;6132323;23;20063;-87
2021/11/18 22:58:36;;;;;;;66.28;18.20;;;;;;;10.76;100.00;102353.78;6108629;23;20027;-87
2021/11/18 23:01:07;;;;;;;11.98;4.22;;;;;;;10.75;100.00;102346.69;6157201;23;20059;-84
2021/11/18 23:03:35;;;;;;;20.48;6.35;;;;;;;10.74;100.00;102355.78;6106713;23;20040;-86
2021/11/18 23:06:05;;;;;;;10.02;4.35;;;;;;;10.73;100.00;102354.06;6131772;23;20459;-85
2021/11/18 23:08:31;;;;;;;8.00;4.25;;;;;;;10.74;100.00;102357.59;6156792;23;19997;-87
2021/11/18 23:10:59;;;;;;;7.18;2.95;;;;;;;10.66;100.00;102341.28;6131173;23;20016;-84
2021/11/18 23:13:27;;;;;;;10.48;3.92;;;;;;;10.73;100.00;102348.69;6157365;23;20385;-85
2021/11/18 23:15:52;;;;;;;12.35;4.82;;;;;;;10.72;100.00;102338.91;6132986;23;20001;-85
2021/11/18 23:18:21;;;;;;;8.85;5.03;;;;;;;10.70;100.00;102346.25;6107814;23;20013;-86
2021/11/18 23:20:50;;;;;;;10.70;6.10;;;;;;;10.71;100.00;102342.56;6132944;23;20340;-85
2021/11/18 23:23:19;;;;;;;11.30;5.65;;;;;;;10.73;100.00;102348.69;6107948;23;20393;-86
2021/11/18 23:25:44;;;;;;;13.30;5.30;;;;;;;10.74;100.00;102346.81;6156961;23;20033;-87
2021/11/18 23:28:31;;;;;;;21.80;9.75;;;;;;;10.70;100.00;102340.03;6132359;23;20036;-86
2021/11/18 23:31:04;;;;;;;11.52;4.85;;;;;;;10.73;100.00;102350.53;6132502;23;20028;-85
2021/11/18 23:33:30;;;;;;;;;;;;;;;10.71;100.00;102357.88;6132626;23;20027;-86
2021/11/18 23:36:02;;;;;;;16.02;6.38;;;;;;;10.68;100.00;102342.84;6156345;23;19908;-85
2021/11/18 23:38:30;;;;;;;9.07;3.72;;;;;;;10.69;100.00;102344.56;6108808;23;20028;-85
2021/11/18 23:40:59;;;;;;;11.23;4.90;;;;;;;10.65;100.00;102331.53;6182861;23;20001;-85
2021/11/18 23:43:28;;;;;;;10.38;4.40;;;;;;;10.70;100.00;102343.56;6109213;23;20009;-87
2021/11/18 23:45:53;;;;;;;10.95;5.20;;;;;;;10.69;100.00;102344.56;6132035;23;20475;-87
2021/11/18 23:48:19;;;;;;;25.38;10.20;;;;;;;10.71;100.00;102347.94;6132078;23;20009;-86
2021/11/18 23:50:48;;;;;;;11.90;5.22;;;;;;;10.69;100.00;102335.63;6156104;23;20009;-86
2021/11/18 23:53:14;;;;;;;12.80;5.47;;;;;;;10.71;100.00;102339.03;6131650;23;20016;-85
2021/11/18 23:55:42;;;;;;;13.63;6.47;;;;;;;10.73;100.00;102345.97;6156034;23;20118;-85
2021/11/18 23:58:09;;;;;;;13.23;6.45;;;;;;;10.70;100.00;102338.19;6106841;23;20031;-85
